Time;durP1;ratioP1;P1;durP2;ratioP2;P2;SDS_P1;SDS_P2;PMS_P1;PMS_P2;Temp;Humidity;BMP_temperature;BMP_pressure;BME280_temperature;BME280_humidity;BME280_pressure;Samples;Min_cycle;Max_cycle;Signal;HPM_P1;HPM_P2
2023/12/01 00:02:24;;;;;;;1.17;1.17;;;;;;;3.21;94.17;94458.59;5051150;28;20182;-70
2023/12/01 00:04:49;;;;;;;8.10;3.43;;;;;;;3.29;93.99;94455.91;5050770;28;20215;-70
2023/12/01 00:07:15;;;;;;;0.47;0.47;;;;;;;3.28;94.07;94469.94;5051019;28;20239;-70
2023/12/01 00:09:40;;;;;;;15.47;9.73;;;;;;;3.29;94.22;94455.09;5050811;28;20179;-70
2023/12/01 00:12:06;;;;;;;0.40;0.40;;;;;;;3.24;93.87;94452.25;5050701;28;20300;-70
2023/12/01 00:14:31;;;;;;;0.80;0.80;;;;;;;3.08;93.95;94467.97;5050651;28;20179;-70
2023/12/01 00:16:57;;;;;;;0.87;0.87;;;;;;;3.12;94.96;94461.44;5050865;28;20170;-70
2023/12/01 00:19:22;;;;;;;6.80;2.13;;;;;;;3.18;95.15;94468.56;5051057;28;20258;-70
2023/12/01 00:21:48;;;;;;;0.60;0.60;;;;;;;3.15;95.55;94467.09;5050792;28;20179;-70
2023/12/01 00:24:14;;;;;;;1.10;1.10;;;;;;;3.21;95.71;94461.19;5050541;28;20195;-70
2023/12/01 00:26:39;;;;;;;3.40;2.13;;;;;;;3.14;95.58;94442.06;5050632;28;20183;-70
2023/12/01 00:29:05;;;;;;;2.17;2.00;;;;;;;3.04;95.54;94431.91;5066726;28;20561;-69
2023/12/01 00:31:30;;;;;;;12.40;9.43;;;;;;;3.12;94.81;94454.44;5070102;28;20174;-69
2023/12/01 00:33:56;;;;;;;0.67;0.67;;;;;;;2.96;95.23;94433.78;5069745;28;20171;-69
2023/12/01 00:36:21;;;;;;;3.50;3.20;;;;;;;2.90;95.68;94450.06;5070151;28;20174;-69
2023/12/01 00:38:47;;;;;;;0.87;0.87;;;;;;;2.99;95.96;94444.66;5070096;28;20669;-69
2023/12/01 00:41:12;;;;;;;4.00;2.77;;;;;;;3.01;95.66;94462.69;5070156;28;20172;-69
2023/12/01 00:43:38;;;;;;;1.07;1.07;;;;;;;2.87;95.71;94440.81;5070235;28;20193;-69
2023/12/01 00:46:04;;;;;;;0.97;0.97;;;;;;;3.02;96.15;94439.13;5070461;28;20209;-69
2023/12/01 00:48:30;;;;;;;0.70;0.70;;;;;;;3.09;96.06;94443.59;5070422;28;20178;-69
2023/12/01 00:50:56;;;;;;;0.40;0.40;;;;;;;3.07;95.23;94422.97;5070429;28;20167;-69
2023/12/01 00:53:22;;;;;;;0.80;0.80;;;;;;;3.14;95.91;94452.47;5070142;28;20563;-69
2023/12/01 00:55:47;;;;;;;0.43;0.43;;;;;;;2.97;96.33;94466.59;5070365;28;20213;-69
2023/12/01 00:58:13;;;;;;;0.83;0.83;;;;;;;3.06;96.42;94438.75;5070527;28;20290;-69
2023/12/01 01:00:40;;;;;;;4.27;1.80;;;;;;;3.09;96.19;94462.59;5070246;28;20186;-69
2023/12/01 01:03:06;;;;;;;0.50;0.50;;;;;;;2.92;96.53;94442.91;5069871;28;20177;-70
2023/12/01 01:05:32;;;;;;;1.90;1.80;;;;;;;3.00;96.33;94435.06;5070062;28;20305;-69
2023/12/01 01:07:57;;;;;;;1.73;1.63;;;;;;;3.04;96.20;94434.53;5070237;28;20257;-69
2023/12/01 01:10:23;;;;;;;0.50;0.50;;;;;;;2.88;96.90;94436.44;5070152;28;20254;-69
2023/12/01 01:12:48;;;;;;;0.57;0.57;;;;;;;2.98;96.78;94426.63;5069912;28;20174;-69
2023/12/01 01:15:14;;;;;;;4.00;2.33;;;;;;;2.93;96.84;94441.94;5070036;28;20174;-69
2023/12/01 01:17:39;;;;;;;2.43;2.27;;;;;;;3.08;97.48;94409.00;5069917;28;20171;-71
2023/12/01 01:20:05;;;;;;;2.60;2.40;;;;;;;3.13;96.69;94419.66;5070061;28;20174;-70
2023/12/01 01:22:32;;;;;;;1.07;1.07;;;;;;;3.20;97.01;94417.97;5070015;28;20205;-70
2023/12/01 01:24:58;;;;;;;0.90;0.90;;;;;;;3.23;96.84;94432.41;5070049;28;20191;-70
2023/12/01 01:27:23;;;;;;;8.73;4.63;;;;;;;3.09;96.24;94415.00;5070044;28;20228;-70
2023/12/01 01:29:49;;;;;;;3.47;3.27;;;;;;;3.17;96.10;94417.53;5069764;28;20177;-70
2023/12/01 01:32:14;;;;;;;0.63;0.63;;;;;;;3.31;96.85;94421.94;5070168;28;20182;-70
2023/12/01 01:34:40;;;;;;;0.50;0.50;;;;;;;3.21;97.44;94408.38;5070038;28;20174;-70
2023/12/01 01:37:07;;;;;;;1.57;1.57;;;;;;;3.37;97.71;94427.22;5070056;28;20194;-70
2023/12/01 01:39:33;;;;;;;3.90;3.70;;;;;;;3.53;97.13;94381.25;5069806;28;20170;-70
2023/12/01 01:41:58;;;;;;;0.60;0.60;;;;;;;3.41;96.66;94407.69;5066475;28;20575;-70
2023/12/01 01:44:24;;;;;;;0.50;0.50;;;;;;;3.45;97.13;94421.16;5065796;28;21034;-69
2023/12/01 01:46:50;;;;;;;5.63;4.13;;;;;;;3.51;97.07;94437.84;5069592;28;20260;-70
2023/12/01 01:49:17;;;;;;;4.60;3.63;;;;;;;3.55;96.63;94381.84;5069814;28;20690;-70
2023/12/01 01:51:44;;;;;;;3.40;3.10;;;;;;;3.22;97.04;94433.41;5069311;28;20174;-70
2023/12/01 01:54:10;;;;;;;1.73;1.63;;;;;;;3.33;97.63;94394.78;5069606;28;20249;-70
2023/12/01 01:56:37;;;;;;;0.60;0.60;;;;;;;3.27;97.88;94403.28;5069753;28;20178;-70
2023/12/01 01:59:03;;;;;;;11.00;4.67;;;;;;;3.50;98.08;94424.03;5069630;28;20181;-70
2023/12/01 02:01:29;;;;;;;1.03;1.03;;;;;;;3.39;97.82;94395.84;5069571;28;20178;-70
2023/12/01 02:03:55;;;;;;;1.63;1.57;;;;;;;3.31;98.59;94399.34;5069374;28;20199;-70
2023/12/01 02:06:30;;;;;;;10.83;3.10;;;;;;;3.42;99.54;94401.50;5069602;28;20281;-70
2023/12/01 02:08:59;;;;;;;0.53;0.53;;;;;;;3.47;99.59;94392.34;5051057;28;20177;-70
2023/12/01 02:11:25;;;;;;;2.10;2.00;;;;;;;3.50;99.18;94334.78;5049469;28;20179;-70
2023/12/01 02:13:54;;;;;;;10.10;4.60;;;;;;;3.44;98.69;94382.31;5049479;28;20294;-69
2023/12/01 02:16:19;;;;;;;0.60;0.60;;;;;;;3.40;99.07;94348.03;5049408;28;20175;-69
2023/12/01 02:18:45;;;;;;;7.77;3.90;;;;;;;3.59;99.64;94390.94;5049542;28;20615;-69
2023/12/01 02:21:11;;;;;;;0.40;0.40;;;;;;;3.40;100.00;94402.66;5049671;28;20179;-69
2023/12/01 02:23:36;;;;;;;0.77;0.77;;;;;;;3.56;99.84;94370.47;5049498;28;20175;-69
2023/12/01 02:26:02;;;;;;;0.40;0.40;;;;;;;3.72;99.16;94393.69;5049670;28;20703;-70
2023/12/01 02:28:28;;;;;;;1.07;1.07;;;;;;;3.82;98.34;94373.41;5049265;28;20183;-70
2023/12/01 02:30:55;;;;;;;0.40;0.40;;;;;;;3.71;98.46;94389.50;5049257;28;20175;-69
2023/12/01 02:33:23;;;;;;;1.77;1.67;;;;;;;3.79;98.42;94389.41;5049186;28;20646;-70
2023/12/01 02:35:50;;;;;;;1.00;1.00;;;;;;;3.93;97.87;94395.56;5047911;28;20262;-69
2023/12/01 02:38:16;;;;;;;0.93;0.93;;;;;;;3.55;97.97;94403.47;5049168;28;20171;-69
2023/12/01 02:40:49;;;;;;;0.90;0.90;;;;;;;3.75;98.35;94383.75;5049153;28;20552;-69
2023/12/01 02:43:15;;;;;;;0.47;0.47;;;;;;;3.83;98.17;94400.25;5049449;28;20262;-69
2023/12/01 02:45:41;;;;;;;4.73;3.53;;;;;;;3.84;97.63;94374.03;5049272;28;20210;-69
2023/12/01 02:48:07;;;;;;;2.10;2.00;;;;;;;4.01;97.70;94379.84;5049505;28;20879;-69
2023/12/01 02:50:34;;;;;;;0.60;0.60;;;;;;;4.18;97.54;94387.28;5049187;28;20269;-70
2023/12/01 02:53:01;;;;;;;3.97;3.67;;;;;;;4.34;97.51;94394.06;5049017;28;20171;-69
2023/12/01 02:55:27;;;;;;;1.20;1.20;;;;;;;4.36;97.07;94399.88;5049595;28;20182;-69
2023/12/01 02:57:52;;;;;;;0.73;0.73;;;;;;;4.46;96.08;94376.16;5052771;28;20175;-69
2023/12/01 03:00:19;;;;;;;8.60;2.30;;;;;;;4.45;95.99;94388.38;5052537;28;20699;-69
2023/12/01 03:02:45;;;;;;;0.70;0.70;;;;;;;4.32;95.61;94359.59;5052483;28;20179;-70
2023/12/01 03:05:11;;;;;;;1.17;1.17;;;;;;;4.33;94.93;94408.06;5052059;28;20246;-69
2023/12/01 03:07:38;;;;;;;0.83;0.83;;;;;;;4.31;95.40;94339.72;5052585;28;20171;-69
2023/12/01 03:10:05;;;;;;;1.83;1.27;;;;;;;4.24;95.64;94377.91;5052572;28;20179;-69
2023/12/01 03:12:30;;;;;;;2.33;2.23;;;;;;;4.35;96.25;94397.47;5052510;28;20206;-70
2023/12/01 03:14:58;;;;;;;0.50;0.50;;;;;;;4.29;96.47;94354.72;5052523;28;20206;-71
2023/12/01 03:17:24;;;;;;;1.10;1.10;;;;;;;4.09;96.88;94403.19;5052370;28;20555;-70
2023/12/01 03:19:51;;;;;;;0.40;0.40;;;;;;;4.18;97.27;94356.00;5051161;28;20179;-70
2023/12/01 03:22:17;;;;;;;0.97;0.97;;;;;;;4.17;97.25;94396.06;5052137;28;20236;-69
2023/12/01 03:24:45;;;;;;;2.47;1.50;;;;;;;4.41;97.32;94378.50;5052152;28;20191;-69
2023/12/01 03:27:11;;;;;;;0.50;0.50;;;;;;;4.52;97.11;94376.22;5052215;28;20258;-69
2023/12/01 03:29:38;;;;;;;0.40;0.40;;;;;;;4.75;96.80;94378.66;5052134;28;20610;-70
2023/12/01 03:32:04;;;;;;;1.17;1.03;;;;;;;4.70;96.59;94378.38;5052106;28;20217;-70
2023/12/01 03:34:30;;;;;;;0.87;0.87;;;;;;;4.79;96.66;94338.16;5051924;28;20167;-70
2023/12/01 03:36:56;;;;;;;0.40;0.40;;;;;;;4.86;96.06;94367.69;5052144;28;20175;-70
2023/12/01 03:39:21;;;;;;;0.30;0.30;;;;;;;4.93;95.86;94363.34;5051950;28;20182;-69
2023/12/01 03:41:48;;;;;;;1.30;1.23;;;;;;;5.10;95.00;94337.78;5051811;28;20175;-69
2023/12/01 03:44:14;;;;;;;0.93;0.93;;;;;;;5.15;94.52;94371.13;5051883;28;20224;-69
2023/12/01 03:46:39;;;;;;;0.63;0.63;;;;;;;4.80;94.39;94389.31;5051819;28;20182;-70
2023/12/01 03:49:05;;;;;;;5.27;1.20;;;;;;;4.87;94.91;94347.63;5051820;28;20179;-70
2023/12/01 03:51:30;;;;;;;1.97;1.73;;;;;;;5.05;95.51;94378.47;5051714;28;20181;-70
2023/12/01 03:53:56;;;;;;;3.13;2.90;;;;;;;4.86;94.84;94393.75;5051836;28;20178;-70
2023/12/01 03:56:22;;;;;;;0.40;0.40;;;;;;;4.96;95.08;94375.19;5052031;28;20296;-69
2023/12/01 03:58:47;;;;;;;1.10;1.00;;;;;;;4.91;95.19;94401.84;5051467;28;20171;-69
2023/12/01 04:01:13;;;;;;;3.80;1.80;;;;;;;4.84;94.82;94393.13;5051544;28;20170;-69
2023/12/01 04:03:38;;;;;;;1.90;1.80;;;;;;;4.89;95.28;94397.81;5051399;28;20206;-69
2023/12/01 04:06:04;;;;;;;0.37;0.37;;;;;;;4.82;95.12;94374.28;5051211;28;20226;-69
2023/12/01 04:08:31;;;;;;;2.93;2.83;;;;;;;4.93;94.94;94373.75;5050582;28;20186;-69
2023/12/01 04:10:57;;;;;;;0.43;0.43;;;;;;;4.88;94.76;94370.94;5049400;28;20265;-69
2023/12/01 04:13:24;;;;;;;2.17;1.77;;;;;;;4.93;94.83;94384.19;5050338;28;20387;-69
2023/12/01 04:15:50;;;;;;;0.50;0.50;;;;;;;5.00;95.01;94352.16;5050928;28;20164;-69
2023/12/01 04:18:15;;;;;;;0.40;0.40;;;;;;;4.78;94.75;94360.00;5051086;28;20167;-69
2023/12/01 04:20:41;;;;;;;4.07;1.63;;;;;;;5.04;94.79;94353.38;5051119;28;20188;-69
2023/12/01 04:23:10;;;;;;;0.50;0.50;;;;;;;4.68;94.69;94375.16;5050498;28;20218;-69
2023/12/01 04:25:37;;;;;;;4.80;4.40;;;;;;;4.76;95.31;94366.38;5050830;28;20661;-69
2023/12/01 04:28:04;;;;;;;0.40;0.40;;;;;;;4.78;95.52;94375.66;5050880;28;20175;-69
2023/12/01 04:30:30;;;;;;;2.53;2.37;;;;;;;4.76;95.22;94359.38;5050878;28;20672;-68
2023/12/01 04:32:57;;;;;;;2.30;2.20;;;;;;;4.72;95.48;94384.22;5050791;28;20214;-68
2023/12/01 04:35:25;;;;;;;2.17;2.07;;;;;;;4.69;95.33;94329.03;5056590;28;20266;-68
2023/12/01 04:37:51;;;;;;;14.57;9.20;;;;;;;4.63;95.41;94353.25;5070248;28;20193;-68
2023/12/01 04:40:17;;;;;;;3.07;2.87;;;;;;;4.75;95.82;94291.81;5070273;28;20542;-68
2023/12/01 04:42:50;;;;;;;0.70;0.70;;;;;;;4.73;95.88;94351.94;5070196;28;20181;-68
2023/12/01 04:45:18;;;;;;;4.27;3.93;;;;;;;4.84;96.00;94382.72;5070342;28;20561;-69
2023/12/01 04:47:45;;;;;;;2.43;2.23;;;;;;;4.74;96.05;94350.97;5070196;28;20265;-69
2023/12/01 04:50:13;;;;;;;0.73;0.73;;;;;;;4.82;96.35;94323.94;5070393;28;20182;-69
2023/12/01 04:52:43;;;;;;;0.40;0.40;;;;;;;5.01;96.08;94338.13;5068253;28;20174;-69
2023/12/01 04:55:13;;;;;;;1.03;1.03;;;;;;;4.96;96.09;94333.47;5050450;28;20182;-69
2023/12/01 04:57:39;;;;;;;1.07;1.00;;;;;;;4.94;96.01;94315.41;5050159;28;20171;-69
2023/12/01 05:00:22;;;;;;;0.53;0.53;;;;;;;5.07;95.97;94322.53;5063741;28;20185;-69
2023/12/01 05:02:53;;;;;;;7.43;2.60;;;;;;;5.12;95.79;94324.56;5070192;28;20562;-69
2023/12/01 05:05:20;;;;;;;0.40;0.40;;;;;;;5.20;95.69;94347.88;5069990;28;20222;-69
2023/12/01 05:07:49;;;;;;;4.10;1.13;;;;;;;5.19;94.92;94352.28;5070403;28;20170;-68
2023/12/01 05:10:15;;;;;;;0.30;0.30;;;;;;;5.03;95.34;94334.31;5069925;28;20690;-69
2023/12/01 05:12:46;;;;;;;3.20;1.70;;;;;;;5.24;95.11;94377.84;5070116;28;20208;-69
2023/12/01 05:15:18;;;;;;;0.50;0.50;;;;;;;5.33;95.19;94327.13;5069795;28;20582;-69
2023/12/01 05:17:48;;;;;;;0.70;0.70;;;;;;;5.14;95.27;94372.13;5068604;28;20174;-69
2023/12/01 05:20:18;;;;;;;1.70;1.43;;;;;;;5.09;95.82;94377.13;5069319;28;20194;-69
2023/12/01 05:22:49;;;;;;;3.30;2.73;;;;;;;5.05;96.39;94313.28;5069836;28;20178;-69
2023/12/01 05:25:16;;;;;;;0.70;0.70;;;;;;;5.00;96.29;94344.34;5069647;28;20202;-69
2023/12/01 05:27:50;;;;;;;1.43;1.43;;;;;;;5.02;96.34;94368.41;5069799;28;20195;-69
2023/12/01 05:30:18;;;;;;;1.23;1.13;;;;;;;5.10;96.53;94358.66;5069751;28;20212;-69
2023/12/01 05:32:45;;;;;;;0.60;0.60;;;;;;;5.09;96.41;94345.81;5069430;28;20174;-69
2023/12/01 05:35:12;;;;;;;0.40;0.40;;;;;;;5.08;96.15;94363.28;5069395;28;20174;-69
2023/12/01 05:37:46;;;;;;;0.57;0.57;;;;;;;5.10;96.37;94383.94;5069574;28;20720;-69
2023/12/01 05:40:14;;;;;;;0.40;0.40;;;;;;;5.19;96.06;94348.91;5067787;28;20676;-69
2023/12/01 05:42:41;;;;;;;17.90;3.67;;;;;;;4.96;95.46;94356.94;5060202;28;20333;-69
2023/12/01 05:45:11;;;;;;;4.53;3.07;;;;;;;5.11;95.95;94343.81;5048827;28;20221;-69
2023/12/01 05:47:44;;;;;;;0.50;0.50;;;;;;;5.06;95.78;94335.75;5048950;28;20851;-69
2023/12/01 05:50:13;;;;;;;1.90;1.50;;;;;;;5.05;95.58;94355.00;5049168;28;20171;-70
2023/12/01 05:52:41;;;;;;;0.50;0.50;;;;;;;4.88;96.38;94352.66;5049181;28;20171;-69
2023/12/01 05:55:14;;;;;;;1.23;1.23;;;;;;;5.07;96.10;94363.44;5049042;28;20246;-68
2023/12/01 05:57:40;;;;;;;2.00;1.90;;;;;;;5.10;96.04;94357.88;5049058;28;20231;-70
2023/12/01 06:00:12;;;;;;;0.70;0.70;;;;;;;5.15;96.25;94351.06;5047432;28;20651;-69
2023/12/01 06:02:48;;;;;;;1.77;1.67;;;;;;;5.22;95.99;94319.81;5048729;28;20189;-69
2023/12/01 06:05:18;;;;;;;2.80;2.17;;;;;;;5.30;95.77;94382.28;5049030;28;20781;-69
2023/12/01 06:07:49;;;;;;;1.03;1.03;;;;;;;5.28;96.07;94329.47;5048911;28;20171;-68
2023/12/01 06:10:15;;;;;;;1.03;1.03;;;;;;;5.20;96.52;94333.03;5048809;28;20186;-68
2023/12/01 06:12:41;;;;;;;1.90;1.57;;;;;;;5.24;96.71;94356.97;5047586;28;20593;-68
2023/12/01 06:15:11;;;;;;;0.83;0.83;;;;;;;5.16;96.84;94315.38;5048880;28;20255;-68
2023/12/01 06:17:37;;;;;;;0.60;0.60;;;;;;;5.18;96.40;94336.84;5049252;28;20232;-68
2023/12/01 06:20:04;;;;;;;0.73;0.73;;;;;;;5.39;96.19;94330.75;5049214;28;20179;-68
2023/12/01 06:22:30;;;;;;;1.07;1.07;;;;;;;5.46;96.04;94373.34;5048845;28;20171;-69
2023/12/01 06:24:56;;;;;;;0.40;0.40;;;;;;;5.49;96.02;94360.72;5047712;28;20187;-69
2023/12/01 06:27:22;;;;;;;0.70;0.70;;;;;;;5.64;96.25;94356.19;5047865;28;20175;-69
2023/12/01 06:29:51;;;;;;;0.50;0.50;;;;;;;5.33;95.42;94327.13;5048633;28;20167;-69
2023/12/01 06:32:16;;;;;;;0.40;0.40;;;;;;;5.61;95.46;94363.63;5052205;28;20307;-69
2023/12/01 06:34:42;;;;;;;0.40;0.40;;;;;;;5.68;95.46;94359.25;5051915;28;20261;-69
2023/12/01 06:37:07;;;;;;;0.60;0.60;;;;;;;5.75;95.21;94359.25;5051505;28;20260;-69
2023/12/01 06:39:33;;;;;;;3.70;2.03;;;;;;;5.72;94.41;94372.69;5051402;28;20296;-69
2023/12/01 06:41:58;;;;;;;1.87;1.77;;;;;;;5.78;94.80;94349.25;5051787;28;20185;-69
2023/12/01 06:44:24;;;;;;;0.40;0.40;;;;;;;5.86;94.12;94369.16;5051261;28;20203;-69
2023/12/01 06:46:49;;;;;;;0.30;0.30;;;;;;;5.91;94.40;94356.34;5050402;28;20175;-69
2023/12/01 06:49:15;;;;;;;0.47;0.47;;;;;;;5.86;94.05;94367.38;5051466;28;20282;-69
2023/12/01 06:51:40;;;;;;;2.33;1.90;;;;;;;5.86;93.99;94348.28;5052208;28;20527;-69
2023/12/01 06:54:09;;;;;;;0.50;0.50;;;;;;;5.76;94.48;94353.84;5052042;28;20167;-69
2023/12/01 06:56:36;;;;;;;5.30;4.40;;;;;;;5.74;94.54;94386.38;5052603;28;20167;-69
2023/12/01 06:59:02;;;;;;;0.77;0.77;;;;;;;5.69;95.39;94324.31;5052646;28;20183;-69
2023/12/01 07:01:28;;;;;;;0.60;0.60;;;;;;;5.53;95.88;94385.47;5052395;28;20178;-69
2023/12/01 07:03:54;;;;;;;0.47;0.47;;;;;;;5.75;95.95;94356.66;5050872;28;20183;-70
2023/12/01 07:06:20;;;;;;;0.70;0.70;;;;;;;5.62;96.34;94401.78;5052081;28;20249;-69
2023/12/01 07:08:45;;;;;;;7.67;3.97;;;;;;;5.84;96.60;94397.28;5051568;28;20179;-69
2023/12/01 07:11:10;;;;;;;0.50;0.50;;;;;;;5.97;96.17;94368.63;5052153;28;20251;-69
2023/12/01 07:13:36;;;;;;;3.07;2.47;;;;;;;5.98;95.63;94391.13;5051628;28;20179;-69
2023/12/01 07:16:09;;;;;;;1.93;1.83;;;;;;;5.97;96.00;94374.66;5052065;28;20676;-70
2023/12/01 07:18:37;;;;;;;0.50;0.50;;;;;;;6.02;96.23;94379.31;5052035;28;20335;-69
2023/12/01 07:21:06;;;;;;;6.10;5.53;;;;;;;6.17;96.14;94346.00;5052340;28;20175;-69
2023/12/01 07:23:34;;;;;;;0.90;0.90;;;;;;;6.15;95.54;94347.19;5052061;28;20663;-69
2023/12/01 07:26:00;;;;;;;4.50;4.20;;;;;;;6.31;95.34;94371.16;5051680;28;20206;-69
2023/12/01 07:28:26;;;;;;;0.83;0.83;;;;;;;6.33;94.96;94361.31;5051582;28;20175;-69
2023/12/01 07:30:51;;;;;;;2.40;2.30;;;;;;;6.40;95.41;94338.63;5051715;28;20560;-69
2023/12/01 07:33:17;;;;;;;1.93;1.83;;;;;;;6.56;94.57;94355.78;5051629;28;20560;-68
2023/12/01 07:35:43;;;;;;;9.73;8.87;;;;;;;6.47;94.52;94345.69;5051514;28;20175;-68
2023/12/01 07:38:09;;;;;;;7.93;5.57;;;;;;;6.59;94.75;94351.94;5051646;28;20178;-68
2023/12/01 07:40:35;;;;;;;0.53;0.53;;;;;;;6.66;94.37;94368.47;5051722;28;20560;-68
2023/12/01 07:43:00;;;;;;;0.40;0.40;;;;;;;6.67;94.54;94341.28;5050379;28;20177;-68
2023/12/01 07:45:26;;;;;;;6.17;1.27;;;;;;;6.69;94.02;94381.13;5051511;28;20194;-69
2023/12/01 07:47:53;;;;;;;0.93;0.93;;;;;;;6.71;94.64;94364.25;5051492;28;20660;-69
2023/12/01 07:50:19;;;;;;;0.70;0.70;;;;;;;6.79;94.13;94368.47;5051705;28;20254;-70
2023/12/01 07:52:46;;;;;;;7.93;2.13;;;;;;;6.95;93.88;94360.22;5051644;28;20244;-70
2023/12/01 07:55:12;;;;;;;1.93;1.83;;;;;;;7.07;93.40;94369.09;5051336;28;20182;-70
2023/12/01 07:57:38;;;;;;;0.50;0.50;;;;;;;7.24;92.80;94364.28;5051343;28;20182;-70
2023/12/01 08:00:06;;;;;;;5.47;3.93;;;;;;;7.26;91.74;94364.88;5051505;28;20167;-70
2023/12/01 08:02:32;;;;;;;16.40;15.47;;;;;;;7.29;91.88;94367.06;5051354;28;20329;-70
2023/12/01 08:04:58;;;;;;;6.43;3.73;;;;;;;7.26;91.52;94405.97;5050943;28;20227;-70
2023/12/01 08:07:23;;;;;;;0.50;0.50;;;;;;;7.40;92.42;94381.38;5049960;28;20170;-70
2023/12/01 08:09:49;;;;;;;0.40;0.40;;;;;;;7.42;92.10;94390.66;5051121;28;20179;-70
2023/12/01 08:12:18;;;;;;;1.70;1.60;;;;;;;7.39;91.88;94404.13;5051066;28;20186;-69
2023/12/01 08:14:44;;;;;;;0.50;0.50;;;;;;;7.33;92.19;94409.38;5051149;28;20171;-69
2023/12/01 08:17:09;;;;;;;1.33;1.33;;;;;;;7.46;92.54;94346.50;5049313;28;20190;-69
2023/12/01 08:19:35;;;;;;;14.13;6.33;;;;;;;7.37;91.97;94418.41;5049897;28;20179;-69
2023/12/01 08:22:00;;;;;;;1.53;1.43;;;;;;;7.40;92.25;94376.94;5049817;28;20183;-69
2023/12/01 08:24:26;;;;;;;0.57;0.57;;;;;;;7.18;92.29;94415.59;5050751;28;20233;-69
2023/12/01 08:26:51;;;;;;;0.40;0.40;;;;;;;7.50;92.41;94427.09;5050678;28;20871;-69
2023/12/01 08:29:17;;;;;;;0.40;0.40;;;;;;;7.62;92.11;94403.69;5050640;28;20174;-70
2023/12/01 08:31:45;;;;;;;8.53;0.70;;;;;;;7.68;91.21;94397.66;5050698;28;20534;-70
2023/12/01 08:34:10;;;;;;;0.60;0.60;;;;;;;7.74;90.93;94394.22;5050331;28;20163;-70
2023/12/01 08:36:36;;;;;;;3.70;3.50;;;;;;;7.93;90.72;94400.44;5064006;28;20316;-70
2023/12/01 08:39:02;;;;;;;0.87;0.87;;;;;;;7.85;91.38;94404.06;5049540;28;20223;-70
2023/12/01 08:41:28;;;;;;;2.73;0.90;;;;;;;7.88;90.82;94413.31;5050279;28;20178;-69
2023/12/01 08:43:53;;;;;;;3.23;3.13;;;;;;;8.06;90.57;94410.06;5056779;28;20170;-70
2023/12/01 08:46:19;;;;;;;0.60;0.60;;;;;;;8.05;89.77;94356.03;5070127;28;20897;-69
2023/12/01 08:48:44;;;;;;;0.30;0.30;;;;;;;8.26;89.65;94395.06;5057377;28;20171;-69
2023/12/01 08:51:10;;;;;;;0.53;0.53;;;;;;;8.39;88.92;94379.31;5049711;28;20511;-69
2023/12/01 08:53:36;;;;;;;0.30;0.30;;;;;;;8.29;88.19;94365.81;5046845;28;20262;-69
2023/12/01 08:56:01;;;;;;;0.30;0.30;;;;;;;8.50;88.42;94355.03;5049680;28;20254;-69
2023/12/01 08:58:27;;;;;;;0.87;0.87;;;;;;;8.60;87.46;94344.91;5049943;28;20698;-69
2023/12/01 09:00:52;;;;;;;0.50;0.50;;;;;;;8.66;86.88;94356.38;5050672;28;20186;-69
2023/12/01 09:03:19;;;;;;;0.70;0.70;;;;;;;8.80;87.34;94357.91;5050512;28;20372;-69
2023/12/01 09:05:44;;;;;;;6.33;1.03;;;;;;;8.64;87.63;94358.41;5050129;28;20575;-68
2023/12/01 09:08:11;;;;;;;0.70;0.70;;;;;;;8.84;87.32;94359.06;5048913;28;20171;-68
2023/12/01 09:10:37;;;;;;;0.40;0.40;;;;;;;8.97;87.03;94330.13;5050465;28;20179;-68
2023/12/01 09:13:03;;;;;;;0.87;0.87;;;;;;;9.11;86.20;94319.50;5049146;28;20775;-68
2023/12/01 09:15:29;;;;;;;2.93;2.73;;;;;;;9.19;85.50;94338.41;5049341;28;20618;-68
2023/12/01 09:17:55;;;;;;;0.30;0.30;;;;;;;9.26;85.33;94328.66;5048889;28;20563;-68
2023/12/01 09:20:20;;;;;;;2.30;1.87;;;;;;;9.18;85.83;94362.25;5048131;28;20179;-68
2023/12/01 09:22:47;;;;;;;1.17;1.17;;;;;;;9.31;85.41;94352.47;5049803;28;20179;-68
2023/12/01 09:25:13;;;;;;;0.90;0.90;;;;;;;9.38;85.32;94358.47;5049936;28;20202;-68
2023/12/01 09:27:42;;;;;;;1.50;1.50;;;;;;;9.36;85.44;94341.31;5049928;28;20170;-68
2023/12/01 09:30:16;;;;;;;22.50;12.43;;;;;;;9.46;85.52;94386.28;5049861;28;20171;-68
2023/12/01 09:32:42;;;;;;;5.03;4.80;;;;;;;9.17;85.80;94339.69;5050004;28;20258;-68
2023/12/01 09:35:07;;;;;;;1.30;1.30;;;;;;;9.37;86.78;94346.34;5049877;28;20178;-69
2023/12/01 09:37:33;;;;;;;23.83;16.20;;;;;;;9.28;86.08;94408.03;5049766;28;20559;-69
2023/12/01 09:39:58;;;;;;;3.40;3.20;;;;;;;9.03;87.21;94317.97;5046942;28;20179;-69
2023/12/01 09:42:24;;;;;;;0.40;0.40;;;;;;;9.20;87.16;94355.78;5049531;28;20174;-70
2023/12/01 09:44:54;;;;;;;27.53;8.00;;;;;;;9.24;86.72;94375.38;5049535;28;20202;-69
2023/12/01 09:47:21;;;;;;;3.07;2.97;;;;;;;9.39;87.23;94319.88;5049727;28;20167;-69
2023/12/01 09:49:49;;;;;;;9.37;6.37;;;;;;;9.58;86.31;94371.44;5049606;28;20255;-69
2023/12/01 09:52:15;;;;;;;1.90;1.80;;;;;;;9.88;86.25;94332.09;5049848;28;20171;-69
2023/12/01 09:54:40;;;;;;;1.37;1.27;;;;;;;10.16;85.54;94350.00;5049600;28;20169;-69
2023/12/01 09:57:06;;;;;;;0.40;0.40;;;;;;;10.48;85.63;94337.47;5049507;28;20171;-68
2023/12/01 09:59:35;;;;;;;0.47;0.47;;;;;;;10.86;82.80;94359.03;5049554;28;20187;-68
2023/12/01 10:02:02;;;;;;;2.90;1.67;;;;;;;11.17;82.81;94357.13;5049777;28;20182;-68
2023/12/01 10:04:37;;;;;;;4.80;4.47;;;;;;;11.41;79.92;94369.34;5051834;28;20725;-68
2023/12/01 10:07:03;;;;;;;0.67;0.67;;;;;;;11.62;78.89;94362.69;5052977;28;20171;-68
2023/12/01 10:09:32;;;;;;;0.40;0.40;;;;;;;11.66;79.73;94363.84;5054354;28;20236;-68
2023/12/01 10:12:12;;;;;;;3.93;3.03;;;;;;;11.70;79.28;94368.41;5053983;28;20668;-67
2023/12/01 10:14:41;;;;;;;3.37;2.03;;;;;;;11.76;78.43;94314.00;5052656;28;20661;-67
2023/12/01 10:17:08;;;;;;;2.10;1.30;;;;;;;11.83;78.25;94311.25;5053217;28;20163;-68
2023/12/01 10:19:47;;;;;;;0.40;0.40;;;;;;;11.75;79.87;94272.84;5053824;28;20206;-68
2023/12/01 10:22:15;;;;;;;0.40;0.40;;;;;;;12.11;79.14;94295.44;5053504;28;20178;-68
2023/12/01 10:25:03;;;;;;;1.13;0.93;;;;;;;12.39;78.49;94335.06;5053159;28;20678;-68
2023/12/01 10:27:31;;;;;;;0.40;0.40;;;;;;;12.57;78.33;94333.28;5061684;28;20653;-68
2023/12/01 10:30:12;;;;;;;0.83;0.83;;;;;;;12.71;76.52;94330.13;5073208;28;20179;-68
2023/12/01 10:32:39;;;;;;;0.60;0.60;;;;;;;12.82;77.61;94312.63;5073272;28;20231;-68
2023/12/01 10:35:05;;;;;;;0.30;0.30;;;;;;;12.80;77.18;94291.72;5070771;28;20166;-68
2023/12/01 10:37:32;;;;;;;1.37;1.30;;;;;;;13.01;77.13;94319.28;5053284;28;20162;-68
2023/12/01 10:40:00;;;;;;;0.43;0.43;;;;;;;13.18;76.63;94306.94;5053263;28;20178;-68
2023/12/01 10:42:29;;;;;;;0.40;0.40;;;;;;;13.34;77.09;94289.47;5053357;28;20643;-68
2023/12/01 10:45:00;;;;;;;0.37;0.37;;;;;;;13.75;77.90;94304.06;5068404;28;20233;-68
2023/12/01 10:47:26;;;;;;;0.40;0.40;;;;;;;14.06;75.41;94292.03;5071775;28;20276;-68
2023/12/01 10:49:55;;;;;;;1.27;1.27;;;;;;;14.22;72.91;94311.56;5061619;28;20684;-68
2023/12/01 10:52:21;;;;;;;0.80;0.80;;;;;;;14.36;72.32;94283.66;5052683;28;20689;-68
2023/12/01 10:54:50;;;;;;;1.10;1.10;;;;;;;14.22;72.14;94275.28;5051607;28;20294;-68
2023/12/01 10:57:35;;;;;;;0.47;0.47;;;;;;;14.29;71.97;94307.66;5051585;28;20181;-69
2023/12/01 11:00:06;;;;;;;1.07;1.00;;;;;;;14.26;71.77;94291.50;5052326;28;20179;-69
2023/12/01 11:02:38;;;;;;;2.07;1.87;;;;;;;14.19;71.03;94290.84;5052948;28;20649;-69
2023/12/01 11:05:06;;;;;;;5.20;4.80;;;;;;;14.24;71.77;94304.19;5063011;28;20314;-69
2023/12/01 11:07:54;;;;;;;0.40;0.40;;;;;;;14.32;71.05;94307.19;5069777;28;20175;-69
2023/12/01 11:10:46;;;;;;;1.27;1.27;;;;;;;14.35;71.01;94290.81;5056146;28;20170;-67
2023/12/01 11:13:27;;;;;;;2.77;1.90;;;;;;;14.22;70.58;94290.38;5070823;28;20190;-67
2023/12/01 11:15:55;;;;;;;0.50;0.50;;;;;;;14.22;72.04;94306.25;5052125;28;20166;-68
2023/12/01 11:18:21;;;;;;;4.77;2.23;;;;;;;14.18;71.41;94276.06;5053186;28;20171;-67
2023/12/01 11:20:48;;;;;;;3.73;3.53;;;;;;;14.17;73.62;94255.91;5051574;28;20256;-69
2023/12/01 11:23:20;;;;;;;1.23;1.23;;;;;;;14.28;73.57;94258.41;5052882;28;20210;-67
2023/12/01 11:25:48;;;;;;;2.47;2.37;;;;;;;14.22;73.53;94238.22;5051683;28;20195;-67
2023/12/01 11:28:22;;;;;;;13.13;4.87;;;;;;;14.39;72.22;94247.97;5052285;28;20187;-68
2023/12/01 11:31:09;;;;;;;0.40;0.40;;;;;;;14.45;71.97;94257.56;5051702;28;20249;-68
2023/12/01 11:33:40;;;;;;;0.87;0.87;;;;;;;14.62;72.11;94255.59;5052152;28;20174;-68
2023/12/01 11:36:27;;;;;;;4.20;3.80;;;;;;;14.53;71.59;94270.38;5052099;28;20167;-68
2023/12/01 11:39:08;;;;;;;4.83;2.30;;;;;;;14.56;71.88;94264.56;5052328;28;20198;-67
2023/12/01 11:41:34;;;;;;;1.30;1.30;;;;;;;14.51;72.43;94273.28;5052016;28;20171;-68